STATION HISTORICAL DATA FROM WUNDERGROUND.COM FOR HIGH PARK VILLAGE,TORONTO,ON,CANADA
 
Daily Summary for May 20, 2018 Units:  Metric    English   Both
Next Day »
Daily Weekly Monthly Yearly Custom
  Current: High: Low: Average:
Temperature: 20 °C 21.1 °C 12.4 °C 14.8 °C
Dew Point: 7.3 °C 12.5 °C 6.9 °C 10.1 °C
Humidity: 44% 90% 40% 75%
Wind Speed: 5.6km/h 16.1km/h 0km/h 6km/h
Wind Gust: 5.6km/h 16.1km/h - -
WindNW - - West
Pressure: 1018.8 hPa 1018.8 hPa 1009.4 hPa -
Precipitation: 0 mm      
Historical Graphs
 
 
Tabular Data for May 20, 2018
Time Temperature Dew Point Pressure Wind Wind Speed Wind Gust Humidity Rainfall Rate (Hourly) Solar Conditions
00:03 13.2 °C 10.2 °C 1009.7 hPa Calm     82% 0 mm 0.0 W/m2 RA
00:08 13.1 °C 10.1 °C 1009.7 hPa Calm     82% 0 mm 0.0 W/m2 RA
00:13 12.9 °C 9.9 °C 1009.7 hPa Calm     82% 0 mm 0.0 W/m2
00:18 12.8 °C 9.9 °C 1009.4 hPa Calm     83% 0 mm 0.0 W/m2
00:23 12.7 °C 9.9 °C 1009.4 hPa Calm     83% 0 mm 0.0 W/m2
00:28 12.7 °C 9.9 °C 1009.4 hPa Calm     83% 0 mm 0.0 W/m2
00:33 12.7 °C 10.1 °C 1009.4 hPa Calm     84% 0 mm 0.0 W/m2
00:38 12.8 °C 10.1 °C 1009.4 hPa Calm     84% 0 mm 0.0 W/m2
00:43 12.8 °C 10.1 °C 1009.4 hPa Calm     84% 0 mm 0.0 W/m2
00:48 12.8 °C 10.2 °C 1009.4 hPa Calm     84% 0 mm 0.0 W/m2
00:53 12.9 °C 10.2 °C 1009.4 hPa Calm     84% 0 mm 0.0 W/m2
00:58 12.9 °C 10.2 °C 1009.4 hPa Calm     84% 0 mm 0.0 W/m2
01:03 12.9 °C 10.3 °C 1009.4 hPa Calm     84% 0 mm 0.0 W/m2
01:08 12.9 °C 10.2 °C 1009.4 hPa Calm     84% 0 mm 0.0 W/m2
01:13 12.9 °C 10.4 °C 1009.4 hPa Calm     85% 0 mm 0.0 W/m2
01:18 12.9 °C 10.4 °C 1009.4 hPa Calm     85% 0 mm 0.0 W/m2
01:23 12.9 °C 10.4 °C 1009.4 hPa NW 1.9 km/h 1.9 km/h 85% 0 mm 0.0 W/m2
01:28 12.8 °C 10.3 °C 1009.4 hPa NNW 3.7 km/h 3.7 km/h 85% 0 mm 0.0 W/m2
01:33 12.7 °C 10.3 °C 1009.4 hPa NNW 3.7 km/h 3.7 km/h 85% 0 mm 0.0 W/m2
01:38 12.7 °C 10.4 °C 1009.4 hPa NNW 3.7 km/h 3.7 km/h 86% 0 mm 0.0 W/m2
01:43 12.8 °C 10.5 °C 1009.7 hPa NNW 3.7 km/h 3.7 km/h 86% 0 mm 0.0 W/m2
01:48 12.9 °C 10.8 °C 1009.7 hPa NNW 5.6 km/h 5.6 km/h 87% 0 mm 0.0 W/m2
01:53 13 °C 10.9 °C 1009.7 hPa NW 3.7 km/h 3.7 km/h 87% 0 mm 0.0 W/m2
01:58 13.1 °C 11.2 °C 1009.7 hPa NW 4.8 km/h 4.8 km/h 88% 0 mm 0.0 W/m2
02:03 13.2 °C 11.2 °C 1009.7 hPa WNW 3.7 km/h 3.7 km/h 88% 0 mm 0.0 W/m2
02:08 13.3 °C 11.3 °C 1010 hPa NW 5.6 km/h 5.6 km/h 88% 0 mm 0.0 W/m2
02:13 13.3 °C 11.4 °C 1009.7 hPa NW 5.6 km/h 5.6 km/h 88% 0 mm 0.0 W/m2
02:18 13.4 °C 11.4 °C 1009.7 hPa NNW 3.7 km/h 3.7 km/h 88% 0 mm 0.0 W/m2
02:23 13.4 °C 11.7 °C 1010 hPa NW 5.6 km/h 5.6 km/h 89% 0 mm 0.0 W/m2
02:28 13.4 °C 11.7 °C 1010 hPa WNW 5.6 km/h 5.6 km/h 89% 0 mm 0.0 W/m2
02:33 13.6 °C 11.8 °C 1010 hPa NW 3.7 km/h 3.7 km/h 89% 0 mm 0.0 W/m2
02:38 13.6 °C 11.8 °C 1010 hPa WNW 3.7 km/h 3.7 km/h 89% 0 mm 0.0 W/m2
02:43 13.6 °C 11.8 °C 1010 hPa North 3.7 km/h 3.7 km/h 89% 0 mm 0.0 W/m2
02:48 13.7 °C 12.1 °C 1010 hPa SW 5.6 km/h 5.6 km/h 90% 0 mm 0.0 W/m2
02:53 13.8 °C 12 °C 1010 hPa SSE 3.7 km/h 3.7 km/h 89% 0 mm 0.0 W/m2
02:58 13.8 °C 12 °C 1010 hPa West 5.6 km/h 5.6 km/h 89% 0 mm 0.0 W/m2
03:03 13.9 °C 12.3 °C 1010 hPa ESE 5.6 km/h 5.6 km/h 90% 0 mm 0.0 W/m2
03:08 13.9 °C 12.3 °C 1010 hPa NW 5.6 km/h 5.6 km/h 90% 0 mm 0.0 W/m2
03:13 14 °C 12.4 °C 1010 hPa NW 5.6 km/h 5.6 km/h 90% 0 mm 0.0 W/m2
03:18 14.1 °C 12.4 °C 1010.4 hPa NNW 7.4 km/h 7.4 km/h 90% 0 mm 0.0 W/m2
03:23 14.1 °C 12.5 °C 1010.4 hPa NW 9.7 km/h 9.7 km/h 90% 0 mm 0.0 W/m2
03:28 14.1 °C 12.5 °C 1010.4 hPa NW 13 km/h 13 km/h 90% 0 mm 0.0 W/m2
03:33 14.2 °C 12.4 °C 1010.7 hPa WNW 9.3 km/h 9.3 km/h 89% 0 mm 0.0 W/m2
03:38 14.1 °C 12.3 °C 1010.7 hPa NW 7.4 km/h 7.4 km/h 89% 0 mm 0.0 W/m2
03:43 14.1 °C 12.3 °C 1010.7 hPa NNE 11.1 km/h 11.1 km/h 89% 0 mm 0.0 W/m2
03:48 14 °C 12.1 °C 1010.7 hPa West 16.1 km/h 16.1 km/h 88% 0 mm 0.0 W/m2
03:53 13.9 °C 12 °C 1010.7 hPa North 13 km/h 13 km/h 88% 0 mm 0.0 W/m2
03:58 13.8 °C 11.7 °C 1010.7 hPa ESE 13 km/h 13 km/h 87% 0 mm 0.0 W/m2
04:03 13.8 °C 11.7 °C 1010.7 hPa NW 14.8 km/h 14.8 km/h 87% 0 mm 0.0 W/m2
04:08 13.8 °C 11.4 °C 1010.7 hPa NE 13 km/h 13 km/h 86% 0 mm 0.0 W/m2
04:13 13.8 °C 11.4 °C 1011.1 hPa North 14.8 km/h 14.8 km/h 86% 0 mm 0.0 W/m2
04:18 13.7 °C 11.4 °C 1011.1 hPa NNW 14.8 km/h 14.8 km/h 86% 0 mm 0.0 W/m2
04:23 13.7 °C 11.2 °C 1011.1 hPa NW 9.3 km/h 9.3 km/h 85% 0 mm 0.0 W/m2
04:28 13.7 °C 11.2 °C 1011.1 hPa WNW 5.6 km/h 5.6 km/h 85% 0 mm 0.0 W/m2
04:33 13.7 °C 11.2 °C 1011.1 hPa NW 9.3 km/h 9.3 km/h 85% 0 mm 0.0 W/m2
04:38 13.6 °C 11.1 °C 1011.4 hPa WNW 14.5 km/h 14.5 km/h 85% 0 mm 0.0 W/m2
04:43 13.5 °C 11 °C 1011.4 hPa NNW 7.4 km/h 7.4 km/h 85% 0 mm 0.0 W/m2
04:48 13.5 °C 11 °C 1011.4 hPa NW 9.3 km/h 9.3 km/h 85% 0 mm 0.0 W/m2
04:53 13.4 °C 10.9 °C 1011.4 hPa NW 7.4 km/h 7.4 km/h 85% 0 mm 0.0 W/m2
04:58 13.3 °C 10.8 °C 1011.4 hPa NW 9.3 km/h 9.3 km/h 85% 0 mm 0.0 W/m2
05:03 13.3 °C 10.8 °C 1011.7 hPa ESE 13 km/h 13 km/h 85% 0 mm 0.0 W/m2
05:08 13.2 °C 10.7 °C 1011.7 hPa NW 7.4 km/h 7.4 km/h 85% 0 mm 0.0 W/m2
05:14 13.1 °C 10.6 °C 1011.7 hPa NNW 6.4 km/h 6.4 km/h 85% 0 mm 0.0 W/m2
05:19 13 °C 10.7 °C 1011.7 hPa NW 13 km/h 13 km/h 86% 0 mm 0.0 W/m2 CLR
05:24 12.9 °C 10.7 °C 1012.1 hPa ENE 5.6 km/h 6.4 km/h 86% 0 mm 0.0 W/m2 CLR
05:29 12.9 °C 10.6 °C 1012.1 hPa WNW 9.3 km/h 9.3 km/h 86% 0 mm 0.0 W/m2 CLR
05:34 12.8 °C 10.6 °C 1012.1 hPa North 7.4 km/h 7.4 km/h 86% 0 mm 0.0 W/m2 CLR
05:39 12.8 °C 10.6 °C 1012.1 hPa NNW 13 km/h 13 km/h 86% 0 mm 0.0 W/m2 CLR
05:44 12.8 °C 10.5 °C 1012.4 hPa NW 5.6 km/h 5.6 km/h 86% 0 mm 0.0 W/m2 CLR
05:49 12.7 °C 10.4 °C 1012.4 hPa North 13 km/h 13 km/h 86% 0 mm 0.0 W/m2 CLR
05:54 12.7 °C 10.4 °C 1012.4 hPa WNW 9.3 km/h 9.3 km/h 86% 0 mm 0.0 W/m2 CLR
05:59 12.6 °C 10.3 °C 1012.4 hPa NNW 9.7 km/h 9.7 km/h 86% 0 mm 0.0 W/m2 CLR
06:04 12.6 °C 10.3 °C 1012.8 hPa WNW 12.9 km/h 12.9 km/h 86% 0 mm 0.0 W/m2 CLR
06:09 12.5 °C 10.4 °C 1012.8 hPa NNW 9.3 km/h 9.3 km/h 87% 0 mm 0.0 W/m2 CLR
06:14 12.4 °C 10.3 °C 1012.8 hPa NW 12.9 km/h 12.9 km/h 87% 0 mm 0.0 W/m2 CLR
06:19 12.4 °C 10.3 °C 1013.1 hPa North 7.4 km/h 7.4 km/h 87% 0 mm 0.0 W/m2 CLR
06:24 12.4 °C 10.3 °C 1013.1 hPa NW 8 km/h 8 km/h 87% 0 mm 5.0 W/m2 CLR
06:29 12.4 °C 10.3 °C 1013.1 hPa North 9.3 km/h 9.3 km/h 87% 0 mm 7.0 W/m2 CLR
06:34 12.5 °C 10.4 °C 1013.4 hPa NW 7.4 km/h 7.4 km/h 87% 0 mm 11.0 W/m2 CLR
06:35 12.5 °C 10.4 °C 1013.4 hPa NE 5.6 km/h 5.6 km/h 87% 0 mm 14.0 W/m2 CLR
06:40 12.5 °C 10.4 °C 1013.4 hPa NNW 7.4 km/h 7.4 km/h 87% 0 mm 12.0 W/m2 CLR
06:45 12.5 °C 10.4 °C 1013.4 hPa NW 5.6 km/h 5.6 km/h 87% 0 mm 12.0 W/m2 CLR
06:50 12.6 °C 10.4 °C 1013.8 hPa East 7.4 km/h 7.4 km/h 87% 0 mm 14.0 W/m2 CLR
06:55 12.6 °C 10.4 °C 1013.8 hPa NNW 5.6 km/h 5.6 km/h 87% 0 mm 9.0 W/m2 CLR
07:00 12.5 °C 10.4 °C 1013.8 hPa NNW 5.6 km/h 5.6 km/h 87% 0 mm 11.0 W/m2 OVC
07:05 12.5 °C 10.4 °C 1013.8 hPa North 7.4 km/h 7.4 km/h 87% 0 mm 11.0 W/m2 OVC
07:10 12.4 °C 10.3 °C 1014.1 hPa North 5.6 km/h 5.6 km/h 87% 0 mm 21.0 W/m2 OVC
07:15 12.4 °C 10.3 °C 1014.1 hPa NW 5.6 km/h 5.6 km/h 87% 0 mm 18.0 W/m2 OVC
07:20 12.5 °C 10.4 °C 1014.4 hPa NW 5.6 km/h 5.6 km/h 87% 0 mm 18.0 W/m2 OVC
07:25 12.5 °C 10.4 °C 1014.8 hPa NW 5.6 km/h 5.6 km/h 87% 0 mm 16.0 W/m2 OVC
07:30 12.4 °C 10.3 °C 1014.8 hPa NW 5.6 km/h 5.6 km/h 87% 0 mm 16.0 W/m2 OVC
07:35 12.4 °C 10.3 °C 1014.8 hPa NW 5.6 km/h 5.6 km/h 87% 0 mm 14.0 W/m2 OVC
07:40 12.5 °C 10.4 °C 1014.8 hPa NNW 3.7 km/h 3.7 km/h 87% 0 mm 14.0 W/m2 OVC
07:45 12.5 °C 10.4 °C 1015.1 hPa NNW 5.6 km/h 5.6 km/h 87% 0 mm 14.0 W/m2 OVC
07:50 12.5 °C 10.4 °C 1015.1 hPa North 3.7 km/h 3.7 km/h 87% 0 mm 16.0 W/m2 OVC
07:55 12.6 °C 10.4 °C 1015.1 hPa NW 5.6 km/h 5.6 km/h 87% 0 mm 21.0 W/m2 OVC
08:00 12.6 °C 10.4 °C 1015.1 hPa North 7.4 km/h 7.4 km/h 87% 0 mm 25.0 W/m2 OVC
08:05 12.6 °C 10.4 °C 1015.5 hPa NNE 7.4 km/h 7.4 km/h 87% 0 mm 25.0 W/m2 OVC
08:10 12.6 °C 10.4 °C 1015.5 hPa WNW 5.6 km/h 5.6 km/h 87% 0 mm 26.0 W/m2 OVC
08:15 12.7 °C 10.6 °C 1015.5 hPa NW 8 km/h 8 km/h 87% 0 mm 33.0 W/m2 OVC
08:20 12.6 °C 10.5 °C 1015.5 hPa NNW 5.6 km/h 5.6 km/h 87% 0 mm 47.0 W/m2 OVC
08:25 12.6 °C 10.3 °C 1015.5 hPa NNE 3.7 km/h 3.7 km/h 86% 0 mm 49.0 W/m2 OVC
08:30 12.6 °C 10.3 °C 1015.5 hPa NW 3.7 km/h 3.7 km/h 86% 0 mm 51.0 W/m2 OVC
08:35 12.6 °C 10.3 °C 1015.5 hPa NE 9.3 km/h 9.3 km/h 86% 0 mm 47.0 W/m2 OVC
08:40 12.7 °C 10.4 °C 1015.8 hPa NW 5.6 km/h 5.6 km/h 86% 0 mm 54.0 W/m2 OVC
08:45 12.7 °C 10.4 °C 1015.8 hPa NNW 5.6 km/h 5.6 km/h 86% 0 mm 51.0 W/m2 OVC
08:50 12.7 °C 10.3 °C 1015.8 hPa NW 3.7 km/h 3.7 km/h 85% 0 mm 60.0 W/m2 OVC
08:55 12.7 °C 10.3 °C 1015.8 hPa NW 3.7 km/h 3.7 km/h 85% 0 mm 63.0 W/m2 OVC
09:00 12.8 °C 10.4 °C 1016.1 hPa NW 5.6 km/h 5.6 km/h 85% 0 mm 62.0 W/m2 OVC
09:05 12.9 °C 10.4 °C 1015.8 hPa West 3.7 km/h 3.7 km/h 85% 0 mm 63.0 W/m2 OVC
09:10 13 °C 10.5 °C 1016.1 hPa NW 3.7 km/h 3.7 km/h 85% 0 mm 63.0 W/m2 OVC
09:15 13.1 °C 10.4 °C 1016.1 hPa North 5.6 km/h 5.6 km/h 84% 0 mm 67.0 W/m2 OVC
09:20 13.2 °C 10.5 °C 1015.8 hPa NNW 5.6 km/h 5.6 km/h 84% 0 mm 72.0 W/m2 OVC
09:25 13.2 °C 10.4 °C 1015.8 hPa NNW 5.6 km/h 5.6 km/h 83% 0 mm 60.0 W/m2 OVC
09:30 13.3 °C 10.4 °C 1016.1 hPa NNW 6.4 km/h 6.4 km/h 83% 0 mm 83.0 W/m2 OVC
09:35 13.4 °C 10.6 °C 1016.1 hPa NW 3.2 km/h 3.2 km/h 83% 0 mm 72.0 W/m2 OVC
09:40 13.6 °C 10.7 °C 1016.1 hPa SSE 5.6 km/h 5.6 km/h 83% 0 mm 72.0 W/m2 OVC
09:45 13.7 °C 10.7 °C 1016.5 hPa NW 5.6 km/h 5.6 km/h 82% 0 mm 65.0 W/m2 OVC
09:50 13.8 °C 10.6 °C 1016.5 hPa East 5.6 km/h 5.6 km/h 81% 0 mm 77.0 W/m2 OVC
09:55 13.9 °C 10.7 °C 1016.5 hPa ENE 5.6 km/h 5.6 km/h 81% 0 mm 81.0 W/m2 OVC
10:00 14.1 °C 10.7 °C 1016.5 hPa NW 5.6 km/h 5.6 km/h 80% 0 mm 88.0 W/m2 OVC
10:05 14.1 °C 10.5 °C 1016.5 hPa NW 7.4 km/h 7.4 km/h 79% 0 mm 42.0 W/m2 OVC
10:10 14 °C 10.4 °C 1016.5 hPa NNW 5.6 km/h 5.6 km/h 79% 0 mm 37.0 W/m2 OVC
10:15 13.9 °C 10.3 °C 1016.8 hPa NNW 9.3 km/h 9.3 km/h 79% 0 mm 46.0 W/m2 OVC
10:20 13.9 °C 10.2 °C 1016.8 hPa NNW 3.7 km/h 3.7 km/h 78% 0 mm 53.0 W/m2 OVC
10:25 14 °C 10.4 °C 1016.8 hPa NNW 3.2 km/h 3.2 km/h 79% 0 mm 76.0 W/m2 OVC
10:30 14.1 °C 10.3 °C 1016.8 hPa NNW 5.6 km/h 5.6 km/h 78% 0 mm 95.0 W/m2 OVC
10:35 14.2 °C 10.4 °C 1016.8 hPa NNW 7.4 km/h 7.4 km/h 78% 0 mm 91.0 W/m2 OVC
10:40 14.3 °C 10.6 °C 1017.2 hPa NW 5.6 km/h 5.6 km/h 78% 0 mm 83.0 W/m2 OVC
10:45 14.4 °C 10.4 °C 1017.2 hPa SW 3.7 km/h 3.7 km/h 77% 0 mm 72.0 W/m2 OVC
10:50 14.4 °C 10.4 °C 1017.5 hPa SW 5.6 km/h 5.6 km/h 77% 0 mm 49.0 W/m2 OVC
10:55 14.4 °C 10.4 °C 1017.5 hPa WNW 5.6 km/h 5.6 km/h 77% 0 mm 35.0 W/m2 OVC
11:00 14.3 °C 10.3 °C 1017.5 hPa NW 6.4 km/h 6.4 km/h 77% 0 mm 86.0 W/m2 OVC
11:05 14.4 °C 10.4 °C 1017.5 hPa NW 5.6 km/h 5.6 km/h 77% 0 mm 65.0 W/m2 OVC
11:10 14.4 °C 10.3 °C 1017.8 hPa NNW 5.6 km/h 5.6 km/h 76% 0 mm 60.0 W/m2 OVC
11:15 14.4 °C 10.3 °C 1017.8 hPa WNW 3.2 km/h 3.2 km/h 76% 0 mm 70.0 W/m2 OVC
11:20 14.5 °C 10.3 °C 1018.2 hPa NW 7.4 km/h 7.4 km/h 76% 0 mm 44.0 W/m2 OVC
11:25 14.6 °C 10.2 °C 1018.2 hPa NW 5.6 km/h 5.6 km/h 75% 0 mm 33.0 W/m2 OVC
11:30 14.7 °C 10.1 °C 1018.2 hPa NW 5.6 km/h 5.6 km/h 74% 0 mm 39.0 W/m2 OVC
11:35 14.8 °C 10 °C 1018.2 hPa West 5.6 km/h 5.6 km/h 73% 0 mm 51.0 W/m2 OVC
11:40 14.8 °C 10 °C 1018.2 hPa NE 5.6 km/h 5.6 km/h 73% 0 mm 53.0 W/m2 OVC
11:45 14.9 °C 10.1 °C 1018.5 hPa North 5.6 km/h 5.6 km/h 73% 0 mm 56.0 W/m2 OVC
11:50 15.1 °C 10.3 °C 1018.2 hPa SSE 5.6 km/h 5.6 km/h 73% 0 mm 56.0 W/m2 OVC
11:55 15.3 °C 10.2 °C 1018.2 hPa WNW 5.6 km/h 5.6 km/h 72% 0 mm 69.0 W/m2 OVC
12:00 15.4 °C 10.4 °C 1018.5 hPa WNW 3.7 km/h 3.7 km/h 72% 0 mm 69.0 W/m2 OVC
12:05 15.7 °C 10.4 °C 1018.5 hPa WNW 1.9 km/h 1.9 km/h 71% 0 mm 67.0 W/m2 OVC
12:10 15.8 °C 10.6 °C 1018.5 hPa NNE 3.7 km/h 3.7 km/h 71% 0 mm 104.0 W/m2 OVC
12:15 16 °C 10.5 °C 1018.5 hPa NNW 5.6 km/h 5.6 km/h 70% 0 mm 69.0 W/m2 OVC
12:20 16.1 °C 10.3 °C 1018.5 hPa NNW 7.4 km/h 7.4 km/h 69% 0 mm 46.0 W/m2 OVC
12:25 16 °C 10.3 °C 1018.5 hPa West 3.7 km/h 3.7 km/h 69% 0 mm 40.0 W/m2 OVC
12:30 16 °C 10.3 °C 1018.5 hPa NW 5.6 km/h 5.6 km/h 69% 0 mm 81.0 W/m2 OVC
12:35 15.9 °C 10.1 °C 1018.5 hPa West 5.6 km/h 5.6 km/h 68% 0 mm 91.0 W/m2 OVC
12:40 16 °C 10.1 °C 1018.5 hPa North 5.6 km/h 5.6 km/h 68% 0 mm 155.0 W/m2 OVC
12:45 16.2 °C 10.2 °C 1018.5 hPa NNW 5.6 km/h 5.6 km/h 68% 0 mm 174.0 W/m2 OVC
12:50 16.3 °C 10.1 °C 1018.5 hPa North 6.4 km/h 6.4 km/h 67% 0 mm 172.0 W/m2 OVC
12:55 16.1 °C 9.9 °C 1018.5 hPa WNW 7.4 km/h 7.4 km/h 67% 0 mm 178.0 W/m2 OVC
13:00 16.1 °C 9.7 °C 1018.5 hPa NNE 7.4 km/h 7.4 km/h 66% 0 mm 171.0 W/m2 OVC
13:10 16.1 °C 9.7 °C 1018.8 hPa NW 5.6 km/h 5.6 km/h 66% 0 mm 190.0 W/m2 OVC
13:15 16.3 °C 10.1 °C 1018.8 hPa NNW 8 km/h 8 km/h 67% 0 mm 167.0 W/m2 OVC
13:20 16.3 °C 9.9 °C 1018.8 hPa NW 8 km/h 8 km/h 66% 0 mm 214.0 W/m2 OVC
13:25 16.3 °C 9.7 °C 1018.8 hPa NNE 9.3 km/h 9.3 km/h 65% 0 mm 185.0 W/m2 OVC
13:30 16.2 °C 9.6 °C 1018.8 hPa NNW 5.6 km/h 5.6 km/h 65% 0 mm 176.0 W/m2 OVC
13:35 16.3 °C 9.4 °C 1018.8 hPa NNW 7.4 km/h 7.4 km/h 64% 0 mm 172.0 W/m2 OVC
13:40 16.4 °C 9.6 °C 1018.8 hPa West 5.6 km/h 5.6 km/h 64% 0 mm 181.0 W/m2 OVC
13:45 16.6 °C 9.8 °C 1018.8 hPa NNW 1.9 km/h 1.9 km/h 64% 0 mm 185.0 W/m2 OVC
13:50 16.7 °C 9.4 °C 1018.8 hPa West 5.6 km/h 5.6 km/h 62% 0 mm 163.0 W/m2 OVC
13:55 16.9 °C 9.6 °C 1018.8 hPa West 3.7 km/h 3.7 km/h 62% 0 mm 176.0 W/m2 OVC
14:00 17.1 °C 9.4 °C 1018.8 hPa NNW 5.6 km/h 5.6 km/h 61% 0 mm 190.0 W/m2 OVC
14:05 17.1 °C 9.4 °C 1018.8 hPa WNW 5.6 km/h 5.6 km/h 61% 0 mm 153.0 W/m2 OVC
14:10 17.2 °C 9.1 °C 1018.8 hPa NNW 7.4 km/h 7.4 km/h 59% 0 mm 111.0 W/m2 OVC
14:15 17.4 °C 9 °C 1018.8 hPa SW 3.7 km/h 3.7 km/h 58% 0 mm 88.0 W/m2 OVC
14:20 17.7 °C 9.3 °C 1018.8 hPa NE 5.6 km/h 5.6 km/h 58% 0 mm 79.0 W/m2 OVC
14:25 17.9 °C 9.2 °C 1018.5 hPa NNW 5.6 km/h 5.6 km/h 57% 0 mm 944.0 W/m2 OVC
14:30 17.9 °C 8.8 °C 1018.8 hPa NW 7.4 km/h 7.4 km/h 55% 0 mm 1007.0 W/m2 OVC
14:35 18.2 °C 8.9 °C 1018.8 hPa NW 5.6 km/h 5.6 km/h 55% 0 mm 1023.0 W/m2 OVC
14:40 18.1 °C 8.4 °C 1018.8 hPa NNW 9.3 km/h 9.3 km/h 53% 0 mm 246.0 W/m2 OVC
14:45 17.9 °C 8.5 °C 1018.8 hPa NW 7.4 km/h 7.4 km/h 54% 0 mm 246.0 W/m2 OVC
14:50 17.9 °C 8.8 °C 1018.5 hPa NW 9.7 km/h 9.7 km/h 55% 0 mm 1002.0 W/m2 OVC
14:55 17.9 °C 7.9 °C 1018.5 hPa NW 6.4 km/h 6.4 km/h 52% 0 mm 1014.0 W/m2 OVC
15:00 18.1 °C 8.1 °C 1018.5 hPa NW 7.4 km/h 7.4 km/h 52% 0 mm 343.0 W/m2 OVC
15:05 18.3 °C 8.2 °C 1018.5 hPa NW 5.6 km/h 5.6 km/h 52% 0 mm 942.0 W/m2 OVC
15:10 18.4 °C 7.8 °C 1018.5 hPa NNW 5.6 km/h 5.6 km/h 50% 0 mm 935.0 W/m2 OVC
15:15 18.6 °C 7.6 °C 1018.8 hPa NNW 6.4 km/h 6.4 km/h 49% 0 mm 904.0 W/m2 OVC
15:20 18.8 °C 7.5 °C 1018.5 hPa NNW 3.7 km/h 3.7 km/h 48% 0 mm 874.0 W/m2 OVC
15:25 18.9 °C 7.4 °C 1018.5 hPa NW 5.6 km/h 5.6 km/h 47% 0 mm 854.0 W/m2 OVC
15:30 19.1 °C 7.8 °C 1018.5 hPa West 3.7 km/h 3.7 km/h 48% 0 mm 846.0 W/m2 OVC
15:35 19.4 °C 7.4 °C 1018.5 hPa SW 5.6 km/h 5.6 km/h 46% 0 mm 828.0 W/m2 OVC
15:40 19.8 °C 7.8 °C 1018.8 hPa NNW 3.7 km/h 3.7 km/h 46% 0 mm 779.0 W/m2 OVC
15:45 20.1 °C 8.4 °C 1018.5 hPa West 5.6 km/h 5.6 km/h 47% 0 mm 846.0 W/m2 OVC
15:50 20.5 °C 8.4 °C 1018.5 hPa NNW 4.8 km/h 4.8 km/h 46% 0 mm 891.0 W/m2 OVC
15:55 20.7 °C 8.3 °C 1018.5 hPa WNW 5.6 km/h 5.6 km/h 45% 0 mm 807.0 W/m2 OVC
16:00 20.7 °C 7.9 °C 1018.8 hPa NW 5.6 km/h 5.6 km/h 44% 0 mm 802.0 W/m2 OVC
16:05 20.3 °C 7.6 °C 1018.5 hPa NNW 3.7 km/h 3.7 km/h 44% 0 mm 733.0 W/m2 OVC
16:10 20.2 °C 7.8 °C 1018.5 hPa NNE 7.4 km/h 7.4 km/h 45% 0 mm 738.0 W/m2 OVC
16:15 20.2 °C 7.9 °C 1018.8 hPa NNW 4.8 km/h 4.8 km/h 45% 0 mm 789.0 W/m2 OVC
16:20 19.9 °C 7.6 °C 1018.8 hPa NW 5.6 km/h 5.6 km/h 45% 0 mm 197.0 W/m2 OVC
16:25 19.6 °C 7.3 °C 1018.8 hPa NNW 3.7 km/h 3.7 km/h 45% 0 mm 113.0 W/m2 OVC
16:30 19.4 °C 7.4 °C 1018.8 hPa WNW 3.7 km/h 3.7 km/h 46% 0 mm 172.0 W/m2 OVC
16:35 19.6 °C 7.6 °C 1018.8 hPa NW 13 km/h 13 km/h 46% 0 mm 877.0 W/m2 OVC
16:40 19.7 °C 7.8 °C 1018.8 hPa North 5.6 km/h 5.6 km/h 46% 0 mm 431.0 W/m2 OVC
16:45 19.9 °C 7.3 °C 1018.8 hPa NNW 5.6 km/h 5.6 km/h 44% 0 mm 497.0 W/m2 OVC
16:50 20 °C 7.3 °C 1018.5 hPa NW 1.9 km/h 1.9 km/h 44% 0 mm 499.0 W/m2 OVC
16:55 20.3 °C 7.3 °C 1018.5 hPa NW 3.7 km/h 3.7 km/h 43% 0 mm 533.0 W/m2 OVC
17:00 20.6 °C 7.6 °C 1018.5 hPa NE 5.6 km/h 5.6 km/h 43% 0 mm 577.0 W/m2 OVC
17:05 20.7 °C 7.3 °C 1018.5 hPa NW 4.8 km/h 4.8 km/h 42% 0 mm 559.0 W/m2 OVC
17:10 20.9 °C 7.5 °C 1018.8 hPa SSW 5.6 km/h 5.6 km/h 42% 0 mm 550.0 W/m2 OVC
17:15 21.1 °C 6.9 °C 1018.8 hPa WNW 8 km/h 8 km/h 40% 0 mm 622.0 W/m2 OVC
17:20 20.4 °C 7.1 °C 1018.8 hPa WNW 5.6 km/h 5.6 km/h 42% 0 mm 545.0 W/m2 OVC
17:25 20.2 °C 7.2 °C 1018.8 hPa NW 5.6 km/h 5.6 km/h 43% 0 mm 497.0 W/m2 OVC
17:30 20 °C 7.3 °C 1018.8 hPa NW 5.6 km/h 5.6 km/h 44% 0 mm 533.0 W/m2 OVC
High Park Village Arhives